sensor_id;sensor_type;location;lat;lon;timestamp;pressure;altitude;pressure_sealevel;temperature;humidity
75006;BME280;63553;51.814;4.600;2023-01-10T00:02:06;101352.69;;;12.73;71.45
75006;BME280;63553;51.814;4.600;2023-01-10T00:04:31;101347.44;;;12.71;71.38
75006;BME280;63553;51.814;4.600;2023-01-10T00:06:57;101351.88;;;12.72;71.26
75006;BME280;63553;51.814;4.600;2023-01-10T00:09:22;101357.47;;;12.72;71.39
75006;BME280;63553;51.814;4.600;2023-01-10T00:11:47;101363.53;;;12.74;71.43
75006;BME280;63553;51.814;4.600;2023-01-10T00:14:31;101356.63;;;12.72;71.21
75006;BME280;63553;51.814;4.600;2023-01-10T00:17:02;101363.84;;;12.64;71.46
75006;BME280;63553;51.814;4.600;2023-01-10T00:19:28;101371.41;;;12.72;71.56
75006;BME280;63553;51.814;4.600;2023-01-10T00:21:54;101383.41;;;12.73;71.35
75006;BME280;63553;51.814;4.600;2023-01-10T00:24:21;101388.63;;;12.74;71.33
75006;BME280;63553;51.814;4.600;2023-01-10T00:26:49;101387.00;;;12.73;71.42
75006;BME280;63553;51.814;4.600;2023-01-10T00:29:24;101390.94;;;12.72;71.22
75006;BME280;63553;51.814;4.600;2023-01-10T00:31:51;101399.81;;;12.74;71.39
75006;BME280;63553;51.814;4.600;2023-01-10T00:34:17;101399.81;;;12.74;71.24
75006;BME280;63553;51.814;4.600;2023-01-10T00:36:42;101400.44;;;12.71;71.23
75006;BME280;63553;51.814;4.600;2023-01-10T00:39:09;101405.38;;;12.74;71.36
75006;BME280;63553;51.814;4.600;2023-01-10T00:41:35;101411.16;;;12.78;71.25
75006;BME280;63553;51.814;4.600;2023-01-10T00:44:19;101412.78;;;12.79;71.65
75006;BME280;63553;51.814;4.600;2023-01-10T00:46:44;101419.84;;;12.76;71.57
75006;BME280;63553;51.814;4.600;2023-01-10T00:49:09;101416.53;;;12.74;71.31
75006;BME280;63553;51.814;4.600;2023-01-10T00:51:38;101421.47;;;12.77;71.39
75006;BME280;63553;51.814;4.600;2023-01-10T00:54:03;101425.09;;;12.78;71.46
75006;BME280;63553;51.814;4.600;2023-01-10T00:56:29;101425.91;;;12.78;71.45
75006;BME280;63553;51.814;4.600;2023-01-10T00:58:54;101432.00;;;12.80;71.44
75006;BME280;63553;51.814;4.600;2023-01-10T01:01:19;101420.34;;;12.78;71.49
75006;BME280;63553;51.814;4.600;2023-01-10T01:03:45;101431.50;;;12.78;71.33
75006;BME280;63553;51.814;4.600;2023-01-10T01:06:10;101429.53;;;12.79;71.00
75006;BME280;63553;51.814;4.600;2023-01-10T01:08:35;101429.53;;;12.79;71.21
75006;BME280;63553;51.814;4.600;2023-01-10T01:11:01;101435.13;;;12.79;71.28
75006;BME280;63553;51.814;4.600;2023-01-10T01:13:26;101440.38;;;12.80;71.53
75006;BME280;63553;51.814;4.600;2023-01-10T01:15:51;101441.19;;;12.81;71.24
75006;BME280;63553;51.814;4.600;2023-01-10T01:18:19;101450.22;;;12.78;71.28
75006;BME280;63553;51.814;4.600;2023-01-10T01:20:46;101451.53;;;12.80;70.87
75006;BME280;63553;51.814;4.600;2023-01-10T01:23:13;101458.44;;;12.83;70.80
75006;BME280;63553;51.814;4.600;2023-01-10T01:25:39;101450.41;;;12.81;70.56
75006;BME280;63553;51.814;4.600;2023-01-10T01:28:04;101453.69;;;12.83;70.93
75006;BME280;63553;51.814;4.600;2023-01-10T01:30:30;101447.25;;;12.83;70.83
75006;BME280;63553;51.814;4.600;2023-01-10T01:32:55;101448.09;;;12.83;70.67
75006;BME280;63553;51.814;4.600;2023-01-10T01:35:21;101457.28;;;12.84;70.70
75006;BME280;63553;51.814;4.600;2023-01-10T01:37:46;101461.75;;;12.85;70.56
75006;BME280;63553;51.814;4.600;2023-01-10T01:40:13;101466.50;;;12.85;70.28
75006;BME280;63553;51.814;4.600;2023-01-10T01:42:39;101470.13;;;12.85;70.26
75006;BME280;63553;51.814;4.600;2023-01-10T01:47:58;101486.53;;;12.87;70.24
75006;BME280;63553;51.814;4.600;2023-01-10T01:50:26;101491.63;;;12.85;70.15
75006;BME280;63553;51.814;4.600;2023-01-10T01:52:56;101494.06;;;12.86;70.39
75006;BME280;63553;51.814;4.600;2023-01-10T01:55:24;101492.09;;;12.87;70.81
75006;BME280;63553;51.814;4.600;2023-01-10T01:57:51;101494.91;;;12.87;70.23
75006;BME280;63553;51.814;4.600;2023-01-10T02:00:18;101496.06;;;12.86;70.42
75006;BME280;63553;51.814;4.600;2023-01-10T02:02:55;101505.56;;;12.85;70.31
75006;BME280;63553;51.814;4.600;2023-01-10T02:05:22;101513.28;;;12.88;70.27
75006;BME280;63553;51.814;4.600;2023-01-10T02:07:51;101511.97;;;12.85;70.32
75006;BME280;63553;51.814;4.600;2023-01-10T02:10:49;101515.25;;;12.87;70.22
75006;BME280;63553;51.814;4.600;2023-01-10T02:13:14;101512.81;;;12.86;70.12
75006;BME280;63553;51.814;4.600;2023-01-10T02:15:40;101512.16;;;12.89;70.77
75006;BME280;63553;51.814;4.600;2023-01-10T02:18:06;101501.63;;;12.86;70.25
75006;BME280;63553;51.814;4.600;2023-01-10T02:21:14;101510.00;;;12.86;70.46
75006;BME280;63553;51.814;4.600;2023-01-10T02:24:11;101509.69;;;12.87;70.50
75006;BME280;63553;51.814;4.600;2023-01-10T02:27:05;101508.84;;;12.87;70.37
75006;BME280;63553;51.814;4.600;2023-01-10T02:29:57;101501.31;;;12.87;70.34
75006;BME280;63553;51.814;4.600;2023-01-10T02:32:34;101494.06;;;12.86;70.44
75006;BME280;63553;51.814;4.600;2023-01-10T02:38:13;101509.19;;;12.85;70.50
75006;BME280;63553;51.814;4.600;2023-01-10T02:43:25;101522.50;;;12.88;70.52
75006;BME280;63553;51.814;4.600;2023-01-10T02:46:00;101528.06;;;12.88;70.36
75006;BME280;63553;51.814;4.600;2023-01-10T02:48:28;101523.31;;;12.89;70.34
75006;BME280;63553;51.814;4.600;2023-01-10T02:51:01;101526.91;;;12.89;70.52
75006;BME280;63553;51.814;4.600;2023-01-10T02:53:35;101523.97;;;12.86;70.34
75006;BME280;63553;51.814;4.600;2023-01-10T02:59:03;101533.66;;;12.88;70.33
75006;BME280;63553;51.814;4.600;2023-01-10T03:01:56;101532.84;;;12.88;70.37
75006;BME280;63553;51.814;4.600;2023-01-10T03:07:27;101537.59;;;12.87;70.43
75006;BME280;63553;51.814;4.600;2023-01-10T03:10:00;101540.38;;;12.87;70.65
75006;BME280;63553;51.814;4.600;2023-01-10T03:14:55;101546.78;;;12.88;70.48
75006;BME280;63553;51.814;4.600;2023-01-10T03:17:22;101543.50;;;12.86;70.54
75006;BME280;63553;51.814;4.600;2023-01-10T03:19:52;101556.63;;;12.85;70.30
75006;BME280;63553;51.814;4.600;2023-01-10T03:22:19;101553.50;;;12.87;70.63
75006;BME280;63553;51.814;4.600;2023-01-10T03:24:48;101560.75;;;12.88;70.51
75006;BME280;63553;51.814;4.600;2023-01-10T03:27:26;101564.66;;;12.87;70.52
75006;BME280;63553;51.814;4.600;2023-01-10T03:29:59;101561.88;;;12.87;70.35
75006;BME280;63553;51.814;4.600;2023-01-10T03:32:27;101559.41;;;12.85;70.01
75006;BME280;63553;51.814;4.600;2023-01-10T03:34:54;101560.56;;;12.84;70.24
75006;BME280;63553;51.814;4.600;2023-01-10T03:37:37;101569.75;;;12.85;70.22
75006;BME280;63553;51.814;4.600;2023-01-10T03:40:16;101571.06;;;12.87;70.19
75006;BME280;63553;51.814;4.600;2023-01-10T03:42:54;101578.13;;;12.85;70.38
75006;BME280;63553;51.814;4.600;2023-01-10T03:45:54;101575.47;;;12.79;70.30
75006;BME280;63553;51.814;4.600;2023-01-10T03:48:26;101579.59;;;12.82;70.09
75006;BME280;63553;51.814;4.600;2023-01-10T03:50:54;101596.00;;;12.83;70.15
75006;BME280;63553;51.814;4.600;2023-01-10T03:53:20;101586.81;;;12.83;70.25
75006;BME280;63553;51.814;4.600;2023-01-10T03:55:46;101587.44;;;12.80;70.19
75006;BME280;63553;51.814;4.600;2023-01-10T03:58:11;101588.91;;;12.77;70.14
75006;BME280;63553;51.814;4.600;2023-01-10T04:00:37;101600.75;;;12.83;70.22
75006;BME280;63553;51.814;4.600;2023-01-10T04:03:03;101603.25;;;12.85;70.08
75006;BME280;63553;51.814;4.600;2023-01-10T04:05:29;101602.22;;;12.80;69.96
75006;BME280;63553;51.814;4.600;2023-01-10T04:07:54;101585.28;;;12.77;69.94
75006;BME280;63553;51.814;4.600;2023-01-10T04:10:20;101587.44;;;12.80;70.14
75006;BME280;63553;51.814;4.600;2023-01-10T04:12:45;101589.28;;;12.85;70.32
75006;BME280;63553;51.814;4.600;2023-01-10T04:15:10;101591.59;;;12.82;70.08
75006;BME280;63553;51.814;4.600;2023-01-10T04:17:36;101591.59;;;12.82;70.03
75006;BME280;63553;51.814;4.600;2023-01-10T04:20:01;101593.84;;;12.80;69.98
75006;BME280;63553;51.814;4.600;2023-01-10T04:22:26;101598.09;;;12.78;70.33
75006;BME280;63553;51.814;4.600;2023-01-10T04:24:52;101597.28;;;12.77;70.22
75006;BME280;63553;51.814;4.600;2023-01-10T04:27:18;101633.75;;;12.81;70.40
75006;BME280;63553;51.814;4.600;2023-01-10T04:29:44;101639.03;;;12.82;70.25
75006;BME280;63553;51.814;4.600;2023-01-10T04:32:10;101619.50;;;12.82;70.06
75006;BME280;63553;51.814;4.600;2023-01-10T04:34:35;101604.19;;;12.80;70.04
75006;BME280;63553;51.814;4.600;2023-01-10T04:37:00;101606.19;;;12.79;70.29
75006;BME280;63553;51.814;4.600;2023-01-10T04:39:26;101608.97;;;12.79;70.32
75006;BME280;63553;51.814;4.600;2023-01-10T04:41:51;101620.13;;;12.79;70.53
75006;BME280;63553;51.814;4.600;2023-01-10T04:44:16;101616.81;;;12.77;70.14
75006;BME280;63553;51.814;4.600;2023-01-10T04:46:41;101620.75;;;12.76;70.32
75006;BME280;63553;51.814;4.600;2023-01-10T04:49:08;101629.13;;;12.76;70.51
75006;BME280;63553;51.814;4.600;2023-01-10T04:51:34;101634.72;;;12.76;70.53
75006;BME280;63553;51.814;4.600;2023-01-10T04:53:59;101648.97;;;12.75;70.70
75006;BME280;63553;51.814;4.600;2023-01-10T04:56:24;101657.69;;;12.73;70.44
75006;BME280;63553;51.814;4.600;2023-01-10T04:58:50;101666.84;;;12.74;70.65
75006;BME280;63553;51.814;4.600;2023-01-10T05:01:19;101664.06;;;12.74;70.62
75006;BME280;63553;51.814;4.600;2023-01-10T05:03:51;101669.13;;;12.72;70.81
75006;BME280;63553;51.814;4.600;2023-01-10T05:06:17;101675.53;;;12.72;70.45
75006;BME280;63553;51.814;4.600;2023-01-10T05:08:43;101665.41;;;12.76;70.68
75006;BME280;63553;51.814;4.600;2023-01-10T05:11:09;101661.53;;;12.86;72.18
75006;BME280;63553;51.814;4.600;2023-01-10T05:13:34;101664.38;;;12.95;74.44
75006;BME280;63553;51.814;4.600;2023-01-10T05:15:59;101659.31;;;12.97;74.82
75006;BME280;63553;51.814;4.600;2023-01-10T05:18:26;101672.94;;;12.98;74.02
75006;BME280;63553;51.814;4.600;2023-01-10T05:20:52;101670.47;;;12.97;72.86
75006;BME280;63553;51.814;4.600;2023-01-10T05:23:18;101667.69;;;12.97;72.72
75006;BME280;63553;51.814;4.600;2023-01-10T05:25:43;101669.44;;;12.93;72.58
75006;BME280;63553;51.814;4.600;2023-01-10T05:28:09;101674.03;;;12.89;72.83
75006;BME280;63553;51.814;4.600;2023-01-10T05:30:34;101688.28;;;12.87;72.28
75006;BME280;63553;51.814;4.600;2023-01-10T05:33:02;101679.09;;;12.87;72.50
75006;BME280;63553;51.814;4.600;2023-01-10T05:35:28;101678.91;;;12.83;72.41
75006;BME280;63553;51.814;4.600;2023-01-10T05:37:53;101687.28;;;12.83;72.48
75006;BME280;63553;51.814;4.600;2023-01-10T05:40:19;101699.59;;;12.82;72.42
75006;BME280;63553;51.814;4.600;2023-01-10T05:42:44;101698.28;;;12.79;72.29
75006;BME280;63553;51.814;4.600;2023-01-10T05:45:10;101712.72;;;12.81;72.28
75006;BME280;63553;51.814;4.600;2023-01-10T05:47:35;101703.13;;;12.74;72.12
75006;BME280;63553;51.814;4.600;2023-01-10T05:50:00;101719.22;;;12.77;72.17
75006;BME280;63553;51.814;4.600;2023-01-10T05:52:26;101724.50;;;12.78;72.01
75006;BME280;63553;51.814;4.600;2023-01-10T05:54:51;101724.00;;;12.76;71.86
75006;BME280;63553;51.814;4.600;2023-01-10T05:57:16;101733.50;;;12.75;72.15
75006;BME280;63553;51.814;4.600;2023-01-10T05:59:43;101729.06;;;12.74;72.19
75006;BME280;63553;51.814;4.600;2023-01-10T06:02:08;101729.91;;;12.75;72.00
75006;BME280;63553;51.814;4.600;2023-01-10T06:04:34;101731.34;;;12.72;72.05
75006;BME280;63553;51.814;4.600;2023-01-10T06:06:59;101721.03;;;12.73;71.82
75006;BME280;63553;51.814;4.600;2023-01-10T06:09:24;101716.56;;;12.72;71.94
75006;BME280;63553;51.814;4.600;2023-01-10T06:11:49;101721.31;;;12.71;71.84
75006;BME280;63553;51.814;4.600;2023-01-10T06:14:15;101716.91;;;12.70;71.91
75006;BME280;63553;51.814;4.600;2023-01-10T06:16:44;101727.44;;;12.73;71.99
75006;BME280;63553;51.814;4.600;2023-01-10T06:19:09;101718.22;;;12.73;71.83
75006;BME280;63553;51.814;4.600;2023-01-10T06:21:34;101726.91;;;12.71;71.75
75006;BME280;63553;51.814;4.600;2023-01-10T06:24:00;101732.81;;;12.70;72.10
75006;BME280;63553;51.814;4.600;2023-01-10T06:26:25;101744.81;;;12.70;71.90
75006;BME280;63553;51.814;4.600;2023-01-10T06:28:50;101733.44;;;12.67;71.80
75006;BME280;63553;51.814;4.600;2023-01-10T06:31:16;101740.34;;;12.69;71.96
75006;BME280;63553;51.814;4.600;2023-01-10T06:33:41;101745.72;;;12.66;72.08
75006;BME280;63553;51.814;4.600;2023-01-10T06:36:08;101742.66;;;12.67;71.92
75006;BME280;63553;51.814;4.600;2023-01-10T06:38:33;101732.94;;;12.65;72.07
75006;BME280;63553;51.814;4.600;2023-01-10T06:40:58;101743.56;;;12.63;72.11
75006;BME280;63553;51.814;4.600;2023-01-10T06:43:38;101759.47;;;12.62;72.26
75006;BME280;63553;51.814;4.600;2023-01-10T06:46:03;101750.19;;;12.67;71.72
75006;BME280;63553;51.814;4.600;2023-01-10T06:48:29;101774.75;;;12.78;72.78
75006;BME280;63553;51.814;4.600;2023-01-10T06:50:54;101779.50;;;12.78;72.69
75006;BME280;63553;51.814;4.600;2023-01-10T06:53:19;101783.41;;;12.77;72.32
75006;BME280;63553;51.814;4.600;2023-01-10T06:55:44;101786.03;;;12.73;72.23
75006;BME280;63553;51.814;4.600;2023-01-10T06:58:10;101797.91;;;12.79;72.30
75006;BME280;63553;51.814;4.600;2023-01-10T07:00:35;101791.63;;;12.73;72.42
75006;BME280;63553;51.814;4.600;2023-01-10T07:03:01;101791.72;;;12.68;72.33
75006;BME280;63553;51.814;4.600;2023-01-10T07:05:27;101788.91;;;12.68;71.78
75006;BME280;63553;51.814;4.600;2023-01-10T07:07:53;101810.13;;;12.69;71.55
75006;BME280;63553;51.814;4.600;2023-01-10T07:10:19;101809.91;;;12.66;71.68
75006;BME280;63553;51.814;4.600;2023-01-10T07:12:44;101813.84;;;12.65;71.89
75006;BME280;63553;51.814;4.600;2023-01-10T07:15:10;101801.88;;;12.64;71.77
75006;BME280;63553;51.814;4.600;2023-01-10T07:17:35;101828.72;;;12.60;71.54
75006;BME280;63553;51.814;4.600;2023-01-10T07:20:01;101834.00;;;12.62;71.82
75006;BME280;63553;51.814;4.600;2023-01-10T07:22:26;101841.22;;;12.63;71.80
75006;BME280;63553;51.814;4.600;2023-01-10T07:24:51;101845.97;;;12.62;71.80
75006;BME280;63553;51.814;4.600;2023-01-10T07:27:18;101840.09;;;12.64;71.48
75006;BME280;63553;51.814;4.600;2023-01-10T07:29:44;101844.84;;;12.63;71.92
75006;BME280;63553;51.814;4.600;2023-01-10T07:32:09;101840.72;;;12.61;71.87
75006;BME280;63553;51.814;4.600;2023-01-10T07:34:34;101845.88;;;12.67;71.24
75006;BME280;63553;51.814;4.600;2023-01-10T07:37:00;101840.81;;;12.69;72.66
75006;BME280;63553;51.814;4.600;2023-01-10T07:39:25;101841.63;;;12.70;72.66
75006;BME280;63553;51.814;4.600;2023-01-10T07:41:50;101827.88;;;12.73;73.27
75006;BME280;63553;51.814;4.600;2023-01-10T07:44:17;101825.41;;;12.72;73.38
75006;BME280;63553;51.814;4.600;2023-01-10T07:46:42;101834.41;;;12.69;73.67
75006;BME280;63553;51.814;4.600;2023-01-10T07:49:07;101841.09;;;12.68;73.18
75006;BME280;63553;51.814;4.600;2023-01-10T07:51:33;101845.69;;;12.64;73.69
75006;BME280;63553;51.814;4.600;2023-01-10T07:53:58;101838.75;;;12.61;73.65
75006;BME280;63553;51.814;4.600;2023-01-10T07:56:23;101846.28;;;12.61;73.88
75006;BME280;63553;51.814;4.600;2023-01-10T07:58:49;101849.38;;;12.59;74.28
75006;BME280;63553;51.814;4.600;2023-01-10T08:01:14;101840.00;;;12.55;74.25
75006;BME280;63553;51.814;4.600;2023-01-10T08:03:40;101842.47;;;12.57;73.95
75006;BME280;63553;51.814;4.600;2023-01-10T08:06:07;101842.47;;;12.57;74.12
75006;BME280;63553;51.814;4.600;2023-01-10T08:08:34;101834.94;;;12.57;74.50
75006;BME280;63553;51.814;4.600;2023-01-10T08:11:00;101832.75;;;12.54;74.29
75006;BME280;63553;51.814;4.600;2023-01-10T08:13:27;101841.34;;;12.58;74.21
75006;BME280;63553;51.814;4.600;2023-01-10T08:15:52;101843.00;;;12.59;73.98
75006;BME280;63553;51.814;4.600;2023-01-10T08:18:19;101848.75;;;12.62;74.09
75006;BME280;63553;51.814;4.600;2023-01-10T08:20:47;101848.13;;;12.65;73.98
75006;BME280;63553;51.814;4.600;2023-01-10T08:23:13;101843.72;;;12.64;74.19
75006;BME280;63553;51.814;4.600;2023-01-10T08:25:39;101834.94;;;12.44;70.43
75006;BME280;63553;51.814;4.600;2023-01-10T08:28:04;101833.91;;;10.07;70.81
75006;BME280;63553;51.814;4.600;2023-01-10T08:30:30;101840.84;;;9.18;75.71
75006;BME280;63553;51.814;4.600;2023-01-10T08:32:55;101839.53;;;8.62;78.92
75006;BME280;63553;51.814;4.600;2023-01-10T08:35:21;101836.75;;;8.62;81.00
75006;BME280;63553;51.814;4.600;2023-01-10T08:37:46;101838.88;;;8.80;83.01
75006;BME280;63553;51.814;4.600;2023-01-10T08:40:11;101830.16;;;9.35;82.92
75006;BME280;63553;51.814;4.600;2023-01-10T08:42:37;101839.25;;;8.63;77.99
75006;BME280;63553;51.814;4.600;2023-01-10T08:45:02;101836.28;;;8.45;78.78
75006;BME280;63553;51.814;4.600;2023-01-10T08:47:28;101847.84;;;8.67;81.38
75006;BME280;63553;51.814;4.600;2023-01-10T08:49:54;101843.06;;;7.98;77.23
75006;BME280;63553;51.814;4.600;2023-01-10T08:52:19;101840.00;;;8.10;81.07
75006;BME280;63553;51.814;4.600;2023-01-10T08:54:44;101846.84;;;8.32;84.88
75006;BME280;63553;51.814;4.600;2023-01-10T08:57:10;101840.16;;;8.44;87.30
75006;BME280;63553;51.814;4.600;2023-01-10T08:59:35;101853.59;;;7.81;76.85
75006;BME280;63553;51.814;4.600;2023-01-10T09:02:01;101848.50;;;8.38;83.96
75006;BME280;63553;51.814;4.600;2023-01-10T09:04:26;101847.09;;;8.95;89.27
75006;BME280;63553;51.814;4.600;2023-01-10T09:06:53;101836.25;;;8.50;78.03
75006;BME280;63553;51.814;4.600;2023-01-10T09:09:19;101837.38;;;8.49;77.94
75006;BME280;63553;51.814;4.600;2023-01-10T09:11:44;101836.91;;;8.11;79.51
75006;BME280;63553;51.814;4.600;2023-01-10T09:14:10;101839.41;;;8.18;79.69
75006;BME280;63553;51.814;4.600;2023-01-10T09:16:35;101837.28;;;7.90;77.16
75006;BME280;63553;51.814;4.600;2023-01-10T09:19:00;101845.19;;;8.26;82.16
75006;BME280;63553;51.814;4.600;2023-01-10T09:21:26;101835.81;;;8.12;77.92
75006;BME280;63553;51.814;4.600;2023-01-10T09:23:52;101835.28;;;8.10;77.69
75006;BME280;63553;51.814;4.600;2023-01-10T09:26:17;101823.38;;;8.00;77.57
75006;BME280;63553;51.814;4.600;2023-01-10T09:28:43;101818.00;;;8.44;81.25
75006;BME280;63553;51.814;4.600;2023-01-10T09:31:08;101822.16;;;8.46;78.59
75006;BME280;63553;51.814;4.600;2023-01-10T09:33:35;101834.66;;;8.28;79.20
75006;BME280;63553;51.814;4.600;2023-01-10T09:36:00;101831.91;;;8.28;80.69
75006;BME280;63553;51.814;4.600;2023-01-10T09:38:26;101819.63;;;8.55;82.41
75006;BME280;63553;51.814;4.600;2023-01-10T09:41:16;101824.72;;;8.17;78.34
75006;BME280;63553;51.814;4.600;2023-01-10T09:51:40;101820.25;;;8.31;86.70
75006;BME280;63553;51.814;4.600;2023-01-10T09:54:33;101821.94;;;9.83;89.71
75006;BME280;63553;51.814;4.600;2023-01-10T09:57:00;101812.81;;;10.53;88.59
75006;BME280;63553;51.814;4.600;2023-01-10T09:59:37;101801.78;;;10.86;88.13
75006;BME280;63553;51.814;4.600;2023-01-10T10:04:55;101810.97;;;11.37;85.48
75006;BME280;63553;51.814;4.600;2023-01-10T10:07:23;101816.53;;;11.56;85.96
75006;BME280;63553;51.814;4.600;2023-01-10T10:09:48;101812.97;;;11.69;84.21
75006;BME280;63553;51.814;4.600;2023-01-10T10:12:36;101815.41;;;11.89;82.57
75006;BME280;63553;51.814;4.600;2023-01-10T10:17:42;101807.16;;;12.25;80.77
75006;BME280;63553;51.814;4.600;2023-01-10T10:37:04;101765.31;;;12.88;78.32
75006;BME280;63553;51.814;4.600;2023-01-10T10:42:18;101757.50;;;12.99;77.57
75006;BME280;63553;51.814;4.600;2023-01-10T10:44:51;101749.00;;;13.04;77.36
75006;BME280;63553;51.814;4.600;2023-01-10T10:47:21;101743.63;;;13.07;77.68
75006;BME280;63553;51.814;4.600;2023-01-10T10:52:26;101732.88;;;13.14;76.95
75006;BME280;63553;51.814;4.600;2023-01-10T10:54:54;101732.53;;;13.16;77.21
75006;BME280;63553;51.814;4.600;2023-01-10T10:57:23;101728.81;;;13.20;76.58
75006;BME280;63553;51.814;4.600;2023-01-10T10:59:50;101722.69;;;13.18;76.65
75006;BME280;63553;51.814;4.600;2023-01-10T11:02:23;101729.50;;;13.26;76.66
75006;BME280;63553;51.814;4.600;2023-01-10T11:04:51;101706.03;;;13.27;76.26
75006;BME280;63553;51.814;4.600;2023-01-10T11:07:17;101717.69;;;13.29;76.23
75006;BME280;63553;51.814;4.600;2023-01-10T11:09:44;101711.97;;;13.34;76.53
75006;BME280;63553;51.814;4.600;2023-01-10T11:12:32;101699.16;;;13.33;76.29
75006;BME280;63553;51.814;4.600;2023-01-10T11:14:58;101703.63;;;13.43;76.77
75006;BME280;63553;51.814;4.600;2023-01-10T11:17:28;101709.09;;;13.48;76.73
75006;BME280;63553;51.814;4.600;2023-01-10T11:19:56;101700.56;;;13.53;76.49
75006;BME280;63553;51.814;4.600;2023-01-10T11:22:22;101695.66;;;13.58;76.21
75006;BME280;63553;51.814;4.600;2023-01-10T11:24:59;101693.38;;;13.60;75.75
75006;BME280;63553;51.814;4.600;2023-01-10T11:27:28;101681.69;;;13.58;75.39
75006;BME280;63553;51.814;4.600;2023-01-10T11:30:07;101675.78;;;13.60;75.27
75006;BME280;63553;51.814;4.600;2023-01-10T11:32:36;101678.91;;;13.58;75.13
75006;BME280;63553;51.814;4.600;2023-01-10T11:35:17;101681.50;;;13.55;74.50
75006;BME280;63553;51.814;4.600;2023-01-10T11:38:00;101679.06;;;13.53;74.35
75006;BME280;63553;51.814;4.600;2023-01-10T11:40:28;101676.06;;;13.50;74.86
75006;BME280;63553;51.814;4.600;2023-01-10T11:42:55;101674.59;;;13.52;75.03
75006;BME280;63553;51.814;4.600;2023-01-10T11:45:27;101664.88;;;13.50;74.84
75006;BME280;63553;51.814;4.600;2023-01-10T11:48:17;101660.44;;;13.49;74.74
75006;BME280;63553;51.814;4.600;2023-01-10T11:50:49;101647.13;;;13.46;74.58
75006;BME280;63553;51.814;4.600;2023-01-10T11:53:37;101655.50;;;13.46;74.80
75006;BME280;63553;51.814;4.600;2023-01-10T11:56:04;101654.66;;;13.45;75.00
75006;BME280;63553;51.814;4.600;2023-01-10T11:58:32;101651.22;;;13.48;73.85
75006;BME280;63553;51.814;4.600;2023-01-10T12:00:58;101646.34;;;13.54;74.06
75006;BME280;63553;51.814;4.600;2023-01-10T12:03:30;101646.88;;;13.64;73.67
75006;BME280;63553;51.814;4.600;2023-01-10T12:06:03;101643.28;;;13.72;73.45
75006;BME280;63553;51.814;4.600;2023-01-10T12:08:35;101638.88;;;13.80;72.75
75006;BME280;63553;51.814;4.600;2023-01-10T12:11:06;101629.19;;;13.86;72.94
75006;BME280;63553;51.814;4.600;2023-01-10T12:13:48;101622.94;;;13.89;73.01
75006;BME280;63553;51.814;4.600;2023-01-10T12:16:23;101612.72;;;13.84;72.60
75006;BME280;63553;51.814;4.600;2023-01-10T12:18:51;101615.53;;;13.84;73.08
75006;BME280;63553;51.814;4.600;2023-01-10T12:21:22;101613.19;;;13.78;73.23
75006;BME280;63553;51.814;4.600;2023-01-10T12:23:52;101606.63;;;13.74;73.74
75006;BME280;63553;51.814;4.600;2023-01-10T12:26:19;101605.44;;;13.66;73.62
75006;BME280;63553;51.814;4.600;2023-01-10T12:28:50;101592.47;;;13.62;73.93
75006;BME280;63553;51.814;4.600;2023-01-10T12:31:16;101597.03;;;13.58;74.19
75006;BME280;63553;51.814;4.600;2023-01-10T12:33:46;101589.66;;;13.53;74.33
75006;BME280;63553;51.814;4.600;2023-01-10T12:39:18;101591.13;;;13.51;74.56
75006;BME280;63553;51.814;4.600;2023-01-10T12:45:11;101568.44;;;13.52;73.46
75006;BME280;63553;51.814;4.600;2023-01-10T12:50:16;101570.09;;;13.62;73.31
75006;BME280;63553;51.814;4.600;2023-01-10T12:55:30;101561.53;;;13.58;74.49
75006;BME280;63553;51.814;4.600;2023-01-10T12:58:03;101564.81;;;13.52;74.87
75006;BME280;63553;51.814;4.600;2023-01-10T13:00:35;101565.16;;;13.50;75.43
75006;BME280;63553;51.814;4.600;2023-01-10T13:03:11;101558.25;;;13.48;75.48
75006;BME280;63553;51.814;4.600;2023-01-10T13:05:37;101554.78;;;13.42;75.14
75006;BME280;63553;51.814;4.600;2023-01-10T13:08:10;101540.63;;;13.39;75.50
75006;BME280;63553;51.814;4.600;2023-01-10T13:10:46;101540.75;;;13.33;75.72
75006;BME280;63553;51.814;4.600;2023-01-10T13:13:34;101534.38;;;13.33;76.20
75006;BME280;63553;51.814;4.600;2023-01-10T13:21:38;101517.44;;;13.29;76.82
75006;BME280;63553;51.814;4.600;2023-01-10T13:26:55;101494.56;;;13.27;77.30
75006;BME280;63553;51.814;4.600;2023-01-10T13:31:58;101499.38;;;13.27;77.00
75006;BME280;63553;51.814;4.600;2023-01-10T13:34:30;101490.47;;;13.25;76.66
75006;BME280;63553;51.814;4.600;2023-01-10T13:37:11;101485.22;;;13.23;76.73
75006;BME280;63553;51.814;4.600;2023-01-10T13:39:39;101477.50;;;13.20;77.18
75006;BME280;63553;51.814;4.600;2023-01-10T13:57:58;101439.66;;;13.06;76.58
75006;BME280;63553;51.814;4.600;2023-01-10T14:03:55;101411.38;;;12.99;76.82
75006;BME280;63553;51.814;4.600;2023-01-10T14:11:23;101384.44;;;12.94;76.20
75006;BME280;63553;51.814;4.600;2023-01-10T14:13:53;101376.72;;;12.91;76.80
75006;BME280;63553;51.814;4.600;2023-01-10T14:16:33;101371.78;;;12.88;76.22
75006;BME280;63553;51.814;4.600;2023-01-10T14:19:00;101368.81;;;12.85;76.42
75006;BME280;63553;51.814;4.600;2023-01-10T14:21:28;101360.25;;;12.81;76.34
75006;BME280;63553;51.814;4.600;2023-01-10T14:23:55;101359.44;;;12.80;76.46
75006;BME280;63553;51.814;4.600;2023-01-10T14:26:25;101362.38;;;12.75;76.50
75006;BME280;63553;51.814;4.600;2023-01-10T14:28:52;101348.75;;;12.74;76.42
75006;BME280;63553;51.814;4.600;2023-01-10T14:31:20;101351.22;;;12.75;76.54
75006;BME280;63553;51.814;4.600;2023-01-10T14:33:47;101340.22;;;12.70;76.38
75006;BME280;63553;51.814;4.600;2023-01-10T14:36:33;101342.38;;;12.73;76.54
75006;BME280;63553;51.814;4.600;2023-01-10T14:39:04;101330.38;;;12.73;76.40